createdAt,value
2017-07-02T00:02:25.206Z,101770.16
2017-07-02T00:04:53.135Z,101778.27
2017-07-02T00:07:21.046Z,101776.88
2017-07-02T00:09:49.027Z,101771.98
2017-07-02T00:12:16.981Z,101769.34
2017-07-02T00:14:44.893Z,101777.83
2017-07-02T00:17:13.048Z,101773.89
2017-07-02T00:19:40.977Z,101772.50
2017-07-02T00:22:08.927Z,101768.47
2017-07-02T00:24:36.841Z,101767.12
2017-07-02T00:27:04.792Z,101763.14
2017-07-02T00:29:32.726Z,101761.31
2017-07-02T00:32:00.685Z,101757.38
2017-07-02T00:34:28.605Z,101754.16
2017-07-02T00:36:56.565Z,101758.23
2017-07-02T00:39:24.482Z,101750.61
2017-07-02T00:41:52.410Z,101745.75
2017-07-02T00:44:20.347Z,101742.20
2017-07-02T00:46:48.292Z,101743.50
2017-07-02T00:49:16.217Z,101740.42
2017-07-02T00:51:44.151Z,101743.55
2017-07-02T00:54:12.080Z,101742.20
2017-07-02T00:56:40.028Z,101737.30
2017-07-02T00:59:07.955Z,101739.55
2017-07-02T01:01:35.888Z,101739.13
2017-07-02T01:04:03.849Z,101738.21
2017-07-02T01:06:31.790Z,101738.21
2017-07-02T01:08:59.721Z,101744.94
2017-07-02T01:11:27.644Z,101743.16
2017-07-02T01:13:55.552Z,101746.36
2017-07-02T01:16:23.473Z,101744.97
2017-07-02T01:18:51.417Z,101746.84
2017-07-02T01:21:19.352Z,101752.13
2017-07-02T01:23:47.263Z,101751.34
2017-07-02T01:26:15.190Z,101753.13
2017-07-02T01:28:43.104Z,101748.66
2017-07-02T01:31:11.043Z,101737.47
2017-07-02T01:33:38.988Z,101735.70
2017-07-02T01:36:06.909Z,101740.20
2017-07-02T01:38:34.839Z,101738.86
2017-07-02T01:41:02.786Z,101732.14
2017-07-02T01:43:30.742Z,101731.23
2017-07-02T01:45:58.647Z,101727.25
2017-07-02T01:48:26.573Z,101733.48
2017-07-02T01:50:54.521Z,101724.99
2017-07-02T01:53:22.428Z,101719.66
2017-07-02T01:55:50.576Z,101712.94
2017-07-02T01:58:18.521Z,101717.02
2017-07-02T02:01:08.511Z,101706.72
2017-07-02T02:03:36.456Z,101707.19
2017-07-02T02:06:04.374Z,101706.80
2017-07-02T02:08:32.330Z,101705.89
2017-07-02T02:11:00.249Z,101700.99
2017-07-02T02:13:28.193Z,101701.47
2017-07-02T02:15:56.126Z,101702.77
2017-07-02T02:18:24.060Z,101705.50
2017-07-02T02:20:51.980Z,101700.60
2017-07-02T02:23:19.892Z,101697.00
2017-07-02T02:25:47.803Z,101694.31
2017-07-02T02:28:15.732Z,101692.97
2017-07-02T02:30:43.649Z,101695.66
2017-07-02T02:33:11.601Z,101696.57
2017-07-02T02:35:40.424Z,101689.86
2017-07-02T02:38:08.333Z,101687.21
2017-07-02T02:40:36.263Z,101686.30
2017-07-02T02:43:04.169Z,101692.55
2017-07-02T02:45:32.102Z,101688.13
2017-07-02T02:48:00.021Z,101683.23
2017-07-02T02:50:27.928Z,101687.69
2017-07-02T02:52:55.866Z,101689.55
2017-07-02T02:55:23.786Z,101691.80
2017-07-02T02:57:51.705Z,101688.60
2017-07-02T03:00:20.417Z,101685.09
2017-07-02T03:02:48.368Z,101685.09
2017-07-02T03:05:16.285Z,101681.49
2017-07-02T03:07:44.208Z,101681.49
2017-07-02T03:10:12.113Z,101680.67
2017-07-02T03:12:40.049Z,101684.27
2017-07-02T03:15:08.013Z,101684.66
2017-07-02T03:17:35.948Z,101686.05
2017-07-02T03:20:03.894Z,101682.92
2017-07-02T03:22:31.812Z,101683.83
2017-07-02T03:24:59.727Z,101677.11
2017-07-02T03:27:27.703Z,101678.89
2017-07-02T03:29:55.629Z,101682.97
2017-07-02T03:32:23.581Z,101686.09
2017-07-02T03:34:51.494Z,101682.05
2017-07-02T03:37:19.419Z,101684.35
2017-07-02T03:39:47.339Z,101675.42
2017-07-02T03:42:15.246Z,101678.98
2017-07-02T03:44:43.165Z,101677.63
2017-07-02T03:47:11.089Z,101675.91
2017-07-02T03:49:39.008Z,101678.59
2017-07-02T03:52:06.950Z,101678.16
2017-07-02T03:54:34.856Z,101679.94
2017-07-02T03:57:03.658Z,101681.32
2017-07-02T03:59:31.613Z,101682.23
2017-07-02T04:01:59.529Z,101682.66
2017-07-02T04:04:27.428Z,101677.77
2017-07-02T04:06:55.340Z,101675.98
2017-07-02T04:09:23.277Z,101690.29
2017-07-02T04:11:51.237Z,101684.52
2017-07-02T04:14:19.157Z,101688.55
2017-07-02T04:16:47.096Z,101685.39
2017-07-02T04:19:15.008Z,101674.69
2017-07-02T04:21:42.916Z,101678.28
2017-07-02T04:24:10.839Z,101680.50
2017-07-02T04:26:38.744Z,101682.75
2017-07-02T04:29:06.687Z,101679.62
2017-07-02T04:31:34.660Z,101682.75
2017-07-02T04:34:02.585Z,101685.48
2017-07-02T04:36:30.531Z,101689.03
2017-07-02T04:38:58.435Z,101688.59
2017-07-02T04:41:26.353Z,101690.85
2017-07-02T04:43:54.277Z,101693.89
2017-07-02T04:46:22.203Z,101699.73
2017-07-02T04:48:50.180Z,101702.94
2017-07-02T04:51:18.091Z,101702.47
2017-07-02T04:53:46.049Z,101705.15
2017-07-02T04:56:13.979Z,101701.59
2017-07-02T04:58:41.893Z,101703.80
2017-07-02T05:01:09.801Z,101698.87
2017-07-02T05:03:37.724Z,101703.77
2017-07-02T05:06:05.639Z,101712.73
2017-07-02T05:08:33.587Z,101708.27
2017-07-02T05:11:01.508Z,101704.24
2017-07-02T05:13:29.431Z,101706.02
2017-07-02T05:15:57.340Z,101708.70
2017-07-02T05:18:25.260Z,101708.27
2017-07-02T05:20:53.173Z,101710.48
2017-07-02T05:23:21.104Z,101713.12
2017-07-02T05:25:49.038Z,101708.66
2017-07-02T05:28:16.953Z,101717.20
2017-07-02T05:30:44.863Z,101724.39
2017-07-02T05:33:12.780Z,101718.58
2017-07-02T05:35:40.711Z,101723.52
2017-07-02T05:38:08.633Z,101721.23
2017-07-02T05:40:36.557Z,101720.36
2017-07-02T05:43:04.495Z,101726.64
2017-07-02T05:45:32.440Z,101728.42
2017-07-02T05:48:00.388Z,101733.36
2017-07-02T05:50:28.300Z,101733.31
2017-07-02T05:52:56.271Z,101732.45
2017-07-02T05:55:24.452Z,101736.48
2017-07-02T05:57:52.397Z,101740.12
2017-07-02T06:00:20.502Z,101746.40
2017-07-02T06:02:48.445Z,101749.09
2017-07-02T06:05:16.421Z,101747.27
2017-07-02T06:07:44.521Z,101758.02
2017-07-02T06:10:12.483Z,101757.10
2017-07-02T06:12:40.418Z,101757.97
2017-07-02T06:15:08.353Z,101754.84
2017-07-02T06:17:36.303Z,101757.49
2017-07-02T06:20:04.240Z,101756.59
2017-07-02T06:22:32.182Z,101755.63
2017-07-02T06:25:00.460Z,101753.81
2017-07-02T06:27:28.440Z,101757.37
2017-07-02T06:29:56.364Z,101760.97
2017-07-02T06:32:24.288Z,101763.65
2017-07-02T06:34:52.209Z,101762.83
2017-07-02T06:37:20.136Z,101770.80
2017-07-02T06:39:48.256Z,101770.28
2017-07-02T06:42:16.193Z,101780.16
2017-07-02T06:44:44.142Z,101780.59
2017-07-02T06:47:12.073Z,101777.13
2017-07-02T06:49:39.986Z,101783.72
2017-07-02T06:52:07.920Z,101788.19
2017-07-02T06:54:35.865Z,101784.59
2017-07-02T06:57:03.786Z,101792.21
2017-07-02T06:59:31.725Z,101798.97
2017-07-02T07:01:59.641Z,101803.00
2017-07-02T07:04:27.938Z,101796.72
2017-07-02T07:06:55.970Z,101805.73
2017-07-02T07:09:23.890Z,101813.75
2017-07-02T07:11:51.811Z,101803.47
2017-07-02T07:14:19.758Z,101806.55
2017-07-02T07:16:47.689Z,101809.63
2017-07-02T07:19:15.628Z,101811.41
2017-07-02T07:21:43.603Z,101816.39
2017-07-02T07:24:11.565Z,101816.44
2017-07-02T07:26:39.505Z,101822.76
2017-07-02T07:29:07.437Z,101830.42
2017-07-02T07:31:35.385Z,101832.20
2017-07-02T07:34:03.382Z,101833.98
2017-07-02T07:36:31.322Z,101833.98
2017-07-02T07:38:59.243Z,101835.32
2017-07-02T07:41:27.223Z,101841.17
2017-07-02T07:43:55.172Z,101849.12
2017-07-02T07:46:23.129Z,101854.58
2017-07-02T07:48:51.062Z,101853.58
2017-07-02T07:51:19.146Z,101858.33
2017-07-02T07:53:47.098Z,101857.52
2017-07-02T07:56:15.037Z,101855.30
2017-07-02T07:58:42.975Z,101858.42
2017-07-02T08:01:10.915Z,101861.88
2017-07-02T08:03:38.872Z,101861.30
2017-07-02T08:06:06.786Z,101862.69
2017-07-02T08:08:34.729Z,101863.44
2017-07-02T08:11:02.653Z,101861.83
2017-07-02T08:13:30.619Z,101864.08
2017-07-02T08:15:58.533Z,101863.09
2017-07-02T08:18:26.454Z,101868.02
2017-07-02T08:20:54.375Z,101875.38
2017-07-02T08:23:22.292Z,101877.34
2017-07-02T08:25:50.222Z,101879.91
2017-07-02T08:28:18.158Z,101883.94
2017-07-02T08:30:46.120Z,101885.19
2017-07-02T08:33:14.042Z,101884.25
2017-07-02T08:35:41.960Z,101889.91
2017-07-02T08:38:09.894Z,101891.56
2017-07-02T08:40:37.887Z,101891.20
2017-07-02T08:43:05.893Z,101892.74
2017-07-02T08:45:33.805Z,101896.10
2017-07-02T08:48:01.733Z,101902.06
2017-07-02T08:50:29.649Z,101901.59
2017-07-02T08:52:57.594Z,101903.77
2017-07-02T08:55:25.516Z,101900.95
2017-07-02T08:57:53.495Z,101900.28
2017-07-02T09:00:21.445Z,101897.66
2017-07-02T09:02:49.372Z,101903.91
2017-07-02T09:05:17.326Z,101906.91
2017-07-02T09:07:45.244Z,101910.63
2017-07-02T09:10:13.233Z,101908.92
2017-07-02T09:12:41.213Z,101913.70
2017-07-02T09:15:09.225Z,101913.19
2017-07-02T09:17:37.140Z,101908.64
2017-07-02T09:20:05.070Z,101914.25
2017-07-02T09:22:33.020Z,101914.25
2017-07-02T09:25:00.958Z,101915.40
2017-07-02T09:27:28.888Z,101916.62
2017-07-02T09:29:56.811Z,101912.38
2017-07-02T09:32:24.738Z,101929.88
2017-07-02T09:34:52.681Z,101926.59
2017-07-02T09:37:20.659Z,101933.98
2017-07-02T09:39:48.696Z,101929.83
2017-07-02T09:42:16.633Z,101930.19
2017-07-02T09:44:44.609Z,101941.09
2017-07-02T09:47:12.572Z,101939.63
2017-07-02T09:49:40.502Z,101944.95
2017-07-02T09:52:08.426Z,101943.36
2017-07-02T09:54:36.369Z,101944.27
2017-07-02T09:57:04.381Z,101951.26
2017-07-02T09:59:32.393Z,101948.97
2017-07-02T10:02:00.333Z,101947.06
2017-07-02T10:04:28.308Z,101957.18
2017-07-02T10:06:56.253Z,101958.40
2017-07-02T10:09:24.210Z,101962.74
2017-07-02T10:11:52.197Z,101960.53
2017-07-02T10:14:20.125Z,101962.78
2017-07-02T10:16:48.059Z,101964.17
2017-07-02T10:19:16.026Z,101969.55
2017-07-02T10:21:43.962Z,101965.43
2017-07-02T10:24:11.895Z,101973.28
2017-07-02T10:26:39.870Z,101968.55
2017-07-02T10:29:07.790Z,101975.14
2017-07-02T10:31:35.721Z,101985.90
2017-07-02T10:34:05.561Z,101977.36
2017-07-02T10:36:33.514Z,101987.36
2017-07-02T10:39:01.512Z,101982.03
2017-07-02T10:41:29.518Z,101994.65
2017-07-02T10:43:57.468Z,101993.66
2017-07-02T10:46:25.490Z,101995.87
2017-07-02T10:48:56.261Z,101990.33
2017-07-02T10:51:24.203Z,101995.19
2017-07-02T10:53:52.160Z,101993.24
2017-07-02T10:56:20.080Z,101994.55
2017-07-02T10:58:48.041Z,101996.57
2017-07-02T11:01:16.011Z,101997.20
2017-07-02T11:03:43.991Z,102001.28
2017-07-02T11:06:12.723Z,102000.09
2017-07-02T11:08:41.924Z,101995.06
2017-07-02T11:11:09.974Z,102000.75
2017-07-02T11:13:38.486Z,102003.52
2017-07-02T11:16:06.478Z,101997.71
2017-07-02T11:18:34.434Z,102005.38
2017-07-02T11:21:02.422Z,102003.73
2017-07-02T11:23:30.393Z,102011.47
2017-07-02T11:25:58.734Z,102023.53
2017-07-02T11:28:27.659Z,102015.47
2017-07-02T11:30:56.553Z,102016.42
2017-07-02T11:33:25.346Z,102020.84
2017-07-02T11:35:53.831Z,102025.23
2017-07-02T11:38:21.810Z,102021.67
2017-07-02T11:40:49.766Z,102022.06
2017-07-02T11:43:19.213Z,102028.23
2017-07-02T11:45:47.396Z,102023.52
2017-07-02T11:48:15.397Z,102029.09
2017-07-02T11:50:44.762Z,102030.19
2017-07-02T11:53:14.149Z,102026.59
2017-07-02T11:55:42.209Z,102022.86
2017-07-02T11:58:11.102Z,102015.11
2017-07-02T12:00:39.961Z,102027.91
2017-07-02T12:03:07.901Z,102021.97
2017-07-02T12:05:36.683Z,102016.16
2017-07-02T12:08:05.574Z,102019.94
2017-07-02T12:10:33.622Z,102023.58
2017-07-02T12:13:01.688Z,102026.27
2017-07-02T12:15:30.970Z,102025.41
2017-07-02T12:17:58.960Z,102029.44
2017-07-02T12:20:26.902Z,102034.51
2017-07-02T12:22:54.842Z,102031.66
2017-07-02T12:25:22.789Z,102038.73
2017-07-02T12:27:51.490Z,102037.20
2017-07-02T12:30:19.465Z,102044.16
2017-07-02T12:32:47.654Z,102040.60
2017-07-02T12:35:15.621Z,102053.19
2017-07-02T12:37:43.569Z,102061.73
2017-07-02T12:40:11.520Z,102062.16
2017-07-02T12:42:39.765Z,102060.57
2017-07-02T12:45:07.792Z,102063.02
2017-07-02T12:47:37.451Z,102067.28
2017-07-02T12:50:06.242Z,102072.97
2017-07-02T12:52:34.624Z,102077.83
2017-07-02T12:55:02.589Z,102077.48
2017-07-02T12:57:30.517Z,102083.17
2017-07-02T12:59:58.467Z,102080.95
2017-07-02T13:02:26.408Z,102083.38
2017-07-02T13:04:54.383Z,102077.77
2017-07-02T13:07:22.417Z,102087.45
2017-07-02T13:09:50.387Z,102085.08
2017-07-02T13:12:18.330Z,102092.19
2017-07-02T13:14:46.301Z,102089.05
2017-07-02T13:17:14.257Z,102091.47
2017-07-02T13:19:42.194Z,102095.03
2017-07-02T13:22:10.418Z,102101.06
2017-07-02T13:24:38.334Z,102110.36
2017-07-02T13:27:06.253Z,102108.72
2017-07-02T13:29:34.192Z,102109.36
2017-07-02T13:32:02.134Z,102102.09
2017-07-02T13:34:30.087Z,102110.78
2017-07-02T13:36:58.045Z,102108.81
2017-07-02T13:39:25.974Z,102115.92
2017-07-02T13:41:53.913Z,102114.06
2017-07-02T13:44:21.834Z,102111.34
2017-07-02T13:46:49.782Z,102117.58
2017-07-02T13:49:17.776Z,102116.59
2017-07-02T13:51:45.821Z,102126.52
2017-07-02T13:54:13.768Z,102119.20
2017-07-02T13:56:41.722Z,102116.98
2017-07-02T13:59:09.654Z,102121.22
2017-07-02T14:01:37.570Z,102124.34
2017-07-02T14:04:05.498Z,102129.52
2017-07-02T14:06:33.453Z,102129.39
2017-07-02T14:09:01.382Z,102121.44
2017-07-02T14:11:29.306Z,102125.03
2017-07-02T14:13:57.253Z,102129.63
2017-07-02T14:16:25.198Z,102132.69
2017-07-02T14:18:53.151Z,102133.08
2017-07-02T14:21:21.166Z,102134.19
2017-07-02T14:23:49.199Z,102129.56
2017-07-02T14:26:17.133Z,102140.39
2017-07-02T14:28:45.115Z,102139.72
2017-07-02T14:31:13.041Z,102140.67
2017-07-02T14:33:41.171Z,102148.49
2017-07-02T14:36:09.108Z,102145.41
2017-07-02T14:38:37.039Z,102147.52
2017-07-02T14:41:04.965Z,102138.11
2017-07-02T14:43:32.897Z,102145.98
2017-07-02T14:46:00.849Z,102148.47
2017-07-02T14:48:28.782Z,102145.86
2017-07-02T14:50:56.727Z,102145.58
2017-07-02T14:53:24.666Z,102149.02
2017-07-02T14:55:52.597Z,102146.73
2017-07-02T14:58:20.551Z,102132.37
2017-07-02T15:00:48.474Z,102146.72
2017-07-02T15:03:16.417Z,102152.06
2017-07-02T15:05:44.337Z,102158.27
2017-07-02T15:08:12.269Z,102155.77
2017-07-02T15:10:40.209Z,102160.44
2017-07-02T15:13:08.155Z,102158.19
2017-07-02T15:15:36.090Z,102159.80
2017-07-02T15:18:04.066Z,102170.64
2017-07-02T15:20:31.997Z,102172.86
2017-07-02T15:22:59.943Z,102170.93
2017-07-02T15:25:27.873Z,102171.86
2017-07-02T15:27:55.849Z,102173.52
2017-07-02T15:30:23.768Z,102184.65
2017-07-02T15:32:51.690Z,102185.69
2017-07-02T15:35:19.637Z,102186.52
2017-07-02T15:37:47.557Z,102192.05
2017-07-02T15:40:15.477Z,102191.69
2017-07-02T15:42:43.427Z,102194.61
2017-07-02T15:45:11.374Z,102184.95
2017-07-02T15:47:39.354Z,102185.16
2017-07-02T15:50:07.269Z,102181.09
2017-07-02T15:52:35.197Z,102191.25
2017-07-02T15:55:03.241Z,102192.63
2017-07-02T15:57:31.201Z,102191.88
2017-07-02T15:59:59.160Z,102192.98
2017-07-02T16:02:27.098Z,102192.16
2017-07-02T16:04:55.050Z,102191.64
2017-07-02T16:07:22.985Z,102194.01
2017-07-02T16:09:51.207Z,102195.56
2017-07-02T16:12:19.286Z,102195.98
2017-07-02T16:14:47.220Z,102203.77
2017-07-02T16:17:15.186Z,102198.22
2017-07-02T16:19:43.364Z,102198.91
2017-07-02T16:22:11.351Z,102202.50
2017-07-02T16:24:39.317Z,102209.94
2017-07-02T16:27:07.309Z,102200.52
2017-07-02T16:29:35.252Z,102194.67
2017-07-02T16:32:03.230Z,102201.56
2017-07-02T16:34:31.214Z,102195.59
2017-07-02T16:36:59.138Z,102195.25
2017-07-02T16:39:27.084Z,102195.92
2017-07-02T16:41:55.011Z,102199.80
2017-07-02T16:44:22.967Z,102207.86
2017-07-02T16:46:50.898Z,102201.45
2017-07-02T16:49:18.832Z,102206.91
2017-07-02T16:51:47.769Z,102210.67
2017-07-02T16:54:15.735Z,102214.27
2017-07-02T16:56:43.657Z,102209.73
2017-07-02T16:59:11.607Z,102203.52
2017-07-02T17:01:39.570Z,102217.88
2017-07-02T17:04:07.522Z,102215.62
2017-07-02T17:06:35.497Z,102214.27
2017-07-02T17:09:03.783Z,102213.80
2017-07-02T17:11:31.763Z,102215.66
2017-07-02T17:13:59.699Z,102217.41
2017-07-02T17:16:27.621Z,102218.39
2017-07-02T17:18:55.562Z,102217.72
2017-07-02T17:21:23.466Z,102218.47
2017-07-02T17:23:51.560Z,102217.95
2017-07-02T17:26:19.489Z,102223.27
2017-07-02T17:28:47.569Z,102220.61
2017-07-02T17:31:15.525Z,102229.78
2017-07-02T17:33:43.460Z,102223.61
2017-07-02T17:36:11.384Z,102225.12
2017-07-02T17:38:39.318Z,102220.56
2017-07-02T17:41:07.234Z,102222.19
2017-07-02T17:43:35.161Z,102221.75
2017-07-02T17:46:03.104Z,102226.81
2017-07-02T17:48:31.055Z,102224.44
2017-07-02T17:50:59.000Z,102225.12
2017-07-02T17:53:27.213Z,102233.70
2017-07-02T17:55:55.163Z,102231.23
2017-07-02T17:58:23.099Z,102239.59
2017-07-02T18:00:51.057Z,102241.72
2017-07-02T18:03:19.084Z,102245.27
2017-07-02T18:05:47.042Z,102244.41
2017-07-02T18:08:15.002Z,102245.39
2017-07-02T18:10:42.961Z,102247.76
2017-07-02T18:13:10.886Z,102250.52
2017-07-02T18:15:38.810Z,102249.94
2017-07-02T18:18:06.786Z,102254.59
2017-07-02T18:20:34.720Z,102254.56
2017-07-02T18:23:02.649Z,102248.67
2017-07-02T18:25:30.607Z,102258.40
2017-07-02T18:27:58.562Z,102253.48
2017-07-02T18:30:26.529Z,102259.37
2017-07-02T18:32:54.478Z,102258.80
2017-07-02T18:35:22.418Z,102256.38
2017-07-02T18:37:50.357Z,102260.92
2017-07-02T18:40:18.322Z,102267.39
2017-07-02T18:42:46.261Z,102259.19
2017-07-02T18:45:14.208Z,102254.87
2017-07-02T18:47:42.177Z,102267.61
2017-07-02T18:50:10.094Z,102268.59
2017-07-02T18:52:38.046Z,102274.84
2017-07-02T18:55:06.001Z,102281.22
2017-07-02T18:57:33.933Z,102277.19
2017-07-02T19:00:01.888Z,102281.10
2017-07-02T19:02:29.859Z,102282.22
2017-07-02T19:04:57.777Z,102287.03
2017-07-02T19:07:25.705Z,102289.70
2017-07-02T19:09:53.657Z,102289.03
2017-07-02T19:12:21.573Z,102295.52
2017-07-02T19:14:49.613Z,102293.00
2017-07-02T19:17:17.536Z,102298.67
2017-07-02T19:19:47.534Z,102289.54
2017-07-02T19:22:15.450Z,102295.20
2017-07-02T19:24:43.403Z,102299.11
2017-07-02T19:27:11.385Z,102301.52
2017-07-02T19:29:39.314Z,102295.72
2017-07-02T19:32:07.262Z,102300.22
2017-07-02T19:34:35.192Z,102308.30
2017-07-02T19:37:03.186Z,102309.73
2017-07-02T19:39:31.125Z,102313.43
2017-07-02T19:41:59.066Z,102306.95
2017-07-02T19:44:27.002Z,102311.34
2017-07-02T19:46:54.931Z,102313.79
2017-07-02T19:49:23.101Z,102307.84
2017-07-02T19:51:51.034Z,102309.72
2017-07-02T19:54:19.150Z,102316.14
2017-07-02T19:56:47.082Z,102312.29
2017-07-02T19:59:15.001Z,102313.33
2017-07-02T20:01:42.947Z,102321.12
2017-07-02T20:04:10.883Z,102319.61
2017-07-02T20:06:38.834Z,102319.91
2017-07-02T20:09:06.775Z,102324.70
2017-07-02T20:11:34.732Z,102328.66
2017-07-02T20:14:02.707Z,102325.98
2017-07-02T20:16:30.625Z,102332.55
2017-07-02T20:18:58.560Z,102334.56
2017-07-02T20:21:26.510Z,102342.16
2017-07-02T20:23:54.438Z,102347.48
2017-07-02T20:26:22.365Z,102349.60
2017-07-02T20:28:51.121Z,102340.64
2017-07-02T20:31:19.043Z,102337.95
2017-07-02T20:33:47.010Z,102345.91
2017-07-02T20:36:14.936Z,102348.16
2017-07-02T20:38:42.882Z,102352.22
2017-07-02T20:41:10.806Z,102353.97
2017-07-02T20:43:38.752Z,102356.65
2017-07-02T20:46:06.694Z,102354.44
2017-07-02T20:48:34.632Z,102361.55
2017-07-02T20:51:02.578Z,102358.80
2017-07-02T20:53:30.498Z,102371.35
2017-07-02T20:55:58.425Z,102364.70
2017-07-02T20:58:26.376Z,102367.77
2017-07-02T21:00:54.316Z,102366.25
2017-07-02T21:03:22.230Z,102369.27
2017-07-02T21:05:50.177Z,102373.20
2017-07-02T21:08:18.117Z,102369.09
2017-07-02T21:10:46.050Z,102363.19
2017-07-02T21:13:14.008Z,102362.24
2017-07-02T21:15:41.931Z,102368.89
2017-07-02T21:18:09.844Z,102363.92
2017-07-02T21:20:37.754Z,102363.02
2017-07-02T21:23:05.669Z,102371.04
2017-07-02T21:25:33.625Z,102371.47
2017-07-02T21:28:01.549Z,102372.34
2017-07-02T21:30:29.477Z,102380.38
2017-07-02T21:32:57.392Z,102383.49
2017-07-02T21:35:25.362Z,102382.63
2017-07-02T21:37:53.313Z,102382.15
2017-07-02T21:40:21.234Z,102384.37
2017-07-02T21:42:49.156Z,102379.90
2017-07-02T21:45:17.077Z,102380.80
2017-07-02T21:47:45.016Z,102382.55
2017-07-02T21:50:12.934Z,102382.55
2017-07-02T21:52:41.160Z,102387.45
2017-07-02T21:55:09.081Z,102384.33
2017-07-02T21:57:37.001Z,102379.83
2017-07-02T22:00:04.957Z,102376.23
2017-07-02T22:02:32.869Z,102381.17
2017-07-02T22:05:00.783Z,102374.42
2017-07-02T22:07:28.710Z,102376.23
2017-07-02T22:09:56.653Z,102366.36
2017-07-02T22:12:24.596Z,102376.20
2017-07-02T22:14:52.542Z,102369.48
2017-07-02T22:17:20.484Z,102368.14
2017-07-02T22:19:48.393Z,102369.02
2017-07-02T22:22:16.337Z,102365.89
2017-07-02T22:24:44.273Z,102364.08
2017-07-02T22:27:12.185Z,102368.11
2017-07-02T22:29:40.139Z,102364.52
2017-07-02T22:32:08.068Z,102357.83
2017-07-02T22:34:36.029Z,102360.92
2017-07-02T22:37:04.529Z,102360.92
2017-07-02T22:39:32.461Z,102365.38
2017-07-02T22:42:00.372Z,102365.86
2017-07-02T22:44:28.286Z,102368.55
2017-07-02T22:46:56.210Z,102365.86
2017-07-02T22:49:24.120Z,102358.23
2017-07-02T22:51:52.837Z,102360.02
2017-07-02T22:54:20.753Z,102360.05
2017-07-02T22:56:48.677Z,102360.05
2017-07-02T22:59:16.593Z,102365.86
2017-07-02T23:01:44.525Z,102369.45
2017-07-02T23:04:12.440Z,102369.02
2017-07-02T23:06:40.472Z,102370.80
2017-07-02T23:09:08.389Z,102366.77
2017-07-02T23:11:36.310Z,102366.77
2017-07-02T23:14:04.268Z,102369.45
2017-07-02T23:16:32.168Z,102364.04
2017-07-02T23:19:00.093Z,102366.77
2017-07-02T23:21:28.018Z,102371.23
2017-07-02T23:23:55.935Z,102365.42
2017-07-02T23:26:23.853Z,102369.45
2017-07-02T23:28:51.781Z,102368.55
2017-07-02T23:31:19.730Z,102376.20
2017-07-02T23:33:47.657Z,102371.70
2017-07-02T23:36:15.601Z,102377.98
2017-07-02T23:38:43.525Z,102379.36
2017-07-02T23:41:11.449Z,102376.67
2017-07-02T23:43:39.397Z,102379.36
2017-07-02T23:46:07.308Z,102373.98
2017-07-02T23:48:35.246Z,102378.02
2017-07-02T23:51:03.190Z,102372.23
2017-07-02T23:53:31.115Z,102371.37
2017-07-02T23:55:59.061Z,102374.96
2017-07-02T23:58:26.973Z,102378.05
